createdAt,value
2022-09-30T00:00:48.690Z,97377.09
2022-09-30T00:03:15.325Z,97380.81
2022-09-30T00:05:41.979Z,97375.75
2022-09-30T00:08:08.565Z,97379.47
2022-09-30T00:10:35.112Z,97380.25
2022-09-30T00:13:01.861Z,97382.59
2022-09-30T00:15:28.482Z,97385.50
2022-09-30T00:17:55.594Z,97387.38
2022-09-30T00:20:22.190Z,97396.63
2022-09-30T00:22:48.716Z,97394.50
2022-09-30T00:25:16.164Z,97400.09
2022-09-30T00:27:42.724Z,97403.53
2022-09-30T00:30:09.711Z,97405.47
2022-09-30T00:32:36.335Z,97410.50
2022-09-30T00:35:02.997Z,97411.59
2022-09-30T00:37:29.614Z,97418.25
2022-09-30T00:39:56.171Z,97416.41
2022-09-30T00:42:22.963Z,97421.72
2022-09-30T00:45:06.250Z,97427.50
2022-09-30T00:47:33.820Z,97427.00
2022-09-30T00:50:06.294Z,97428.31
2022-09-30T00:52:34.096Z,97430.72
2022-09-30T00:55:04.595Z,97428.31
2022-09-30T00:57:31.188Z,97427.50
2022-09-30T00:59:57.816Z,97429.63
2022-09-30T01:02:24.615Z,97427.00
2022-09-30T01:04:51.286Z,97432.78
2022-09-30T01:07:17.927Z,97432.25
2022-09-30T01:09:45.265Z,97432.53
2022-09-30T01:12:16.958Z,97431.44
2022-09-30T01:14:45.489Z,97432.25
2022-09-30T01:17:34.267Z,97434.91
2022-09-30T01:20:17.039Z,97434.41
2022-09-30T01:23:13.028Z,97432.25
2022-09-30T01:26:10.233Z,97423.44
2022-09-30T01:28:52.026Z,97426.16
2022-09-30T01:31:28.771Z,97429.88
2022-09-30T01:34:06.345Z,97429.09
2022-09-30T01:36:55.787Z,97432.22
2022-09-30T01:39:41.888Z,97435.41
2022-09-30T01:42:14.497Z,97433.56
2022-09-30T01:45:09.273Z,97434.63
2022-09-30T01:47:53.369Z,97439.13
2022-09-30T01:50:28.060Z,97440.16
2022-09-30T01:53:10.995Z,97441.47
2022-09-30T01:55:46.178Z,97436.41
2022-09-30T01:58:22.411Z,97439.31
2022-09-30T02:00:53.434Z,97441.41
2022-09-30T02:03:25.679Z,97441.41
2022-09-30T02:05:58.816Z,97439.56
2022-09-30T02:08:31.960Z,97435.31
2022-09-30T02:11:04.810Z,97440.06
2022-09-30T02:13:39.987Z,97432.69
2022-09-30T02:16:13.963Z,97430.03
2022-09-30T02:18:50.452Z,97434.03
2022-09-30T02:21:23.626Z,97439.03
2022-09-30T02:24:00.618Z,97431.84
2022-09-30T02:26:31.479Z,97432.13
2022-09-30T02:29:05.184Z,97431.84
2022-09-30T02:31:36.398Z,97435.28
2022-09-30T02:34:07.412Z,97433.97
2022-09-30T02:36:40.591Z,97446.41
2022-09-30T02:39:15.320Z,97447.16
2022-09-30T02:41:48.696Z,97451.44
2022-09-30T02:44:16.603Z,97453.81
2022-09-30T02:46:56.938Z,97453.81
2022-09-30T02:49:38.137Z,97458.56
2022-09-30T02:52:24.659Z,97447.66
2022-09-30T02:55:12.369Z,97458.88
2022-09-30T02:57:57.660Z,97465.53
2022-09-30T03:00:24.542Z,97458.56
2022-09-30T03:02:59.757Z,97472.31
2022-09-30T03:05:28.282Z,97469.91
2022-09-30T03:07:56.539Z,97469.34
2022-09-30T03:10:23.902Z,97479.16
2022-09-30T03:13:25.748Z,97485.06
2022-09-30T03:16:14.220Z,97481.81
2022-09-30T03:18:40.814Z,97491.09
2022-09-30T03:21:29.650Z,97491.09
2022-09-30T03:24:22.528Z,97497.69
2022-09-30T03:27:14.691Z,97501.38
2022-09-30T03:29:42.260Z,97506.00
2022-09-30T03:32:34.470Z,97507.72
2022-09-30T03:35:31.619Z,97509.03
2022-09-30T03:38:16.321Z,97504.41
2022-09-30T03:40:57.854Z,97511.19
2022-09-30T03:43:40.795Z,97515.00
2022-09-30T03:46:37.923Z,97518.91
2022-09-30T03:49:10.725Z,97523.31
2022-09-30T03:51:39.818Z,97536.81
2022-09-30T03:54:10.222Z,97537.63
2022-09-30T03:56:43.373Z,97541.84
2022-09-30T03:59:17.273Z,97544.75
2022-09-30T04:01:43.963Z,97551.91
2022-09-30T04:04:10.580Z,97547.41
2022-09-30T04:06:37.295Z,97547.47
2022-09-30T04:09:04.028Z,97553.34
2022-09-30T04:11:30.730Z,97551.66
2022-09-30T04:13:57.370Z,97557.22
2022-09-30T04:16:24.380Z,97552.69
2022-09-30T04:18:51.234Z,97557.22
2022-09-30T04:21:17.878Z,97561.16
2022-09-30T04:23:44.687Z,97559.53
2022-09-30T04:26:13.357Z,97564.84
2022-09-30T04:28:40.201Z,97566.94
2022-09-30T04:31:07.373Z,97570.13
2022-09-30T04:33:34.225Z,97574.72
2022-09-30T04:36:01.351Z,97575.00
2022-09-30T04:38:28.098Z,97575.25
2022-09-30T04:40:55.407Z,97574.47
2022-09-30T04:43:23.513Z,97583.13
2022-09-30T04:45:53.420Z,97595.34
2022-09-30T04:48:22.580Z,97596.63
2022-09-30T04:50:49.814Z,97599.28
2022-09-30T04:53:18.003Z,97610.69
2022-09-30T04:55:45.638Z,97612.03
2022-09-30T04:58:12.930Z,97608.84
2022-09-30T05:00:39.861Z,97615.91
2022-09-30T05:03:06.993Z,97618.56
2022-09-30T05:05:34.031Z,97617.03
2022-09-30T05:08:02.562Z,97619.38
2022-09-30T05:10:30.038Z,97624.28
2022-09-30T05:12:58.029Z,97625.03
2022-09-30T05:15:25.341Z,97630.09
2022-09-30T05:17:53.237Z,97638.03
2022-09-30T05:20:21.413Z,97638.47
2022-09-30T05:22:53.545Z,97646.88
2022-09-30T05:25:20.182Z,97651.22
2022-09-30T05:27:49.796Z,97653.44
2022-09-30T05:30:16.544Z,97651.25
2022-09-30T05:32:43.151Z,97666.19
2022-09-30T05:35:12.048Z,97660.19
2022-09-30T05:37:38.955Z,97670.25
2022-09-30T05:40:07.408Z,97674.69
2022-09-30T05:42:35.959Z,97672.94
2022-09-30T05:45:07.180Z,97671.28
2022-09-30T05:47:34.283Z,97677.94
2022-09-30T05:50:00.867Z,97683.72
2022-09-30T05:52:28.363Z,97687.19
2022-09-30T05:54:56.368Z,97684.44
2022-09-30T05:57:22.972Z,97686.31
2022-09-30T05:59:49.515Z,97691.34
2022-09-30T06:02:16.103Z,97694.56
2022-09-30T06:04:42.733Z,97698.81
2022-09-30T06:07:10.610Z,97699.84
2022-09-30T06:09:37.583Z,97697.78
2022-09-30T06:12:06.228Z,97691.91
2022-09-30T06:14:32.981Z,97701.94
2022-09-30T06:17:00.627Z,97707.38
2022-09-30T06:19:28.934Z,97710.59
2022-09-30T06:21:55.466Z,97706.75
2022-09-30T06:24:25.999Z,97710.94
2022-09-30T06:26:52.601Z,97716.47
2022-09-30T06:29:19.670Z,97714.63
2022-09-30T06:31:46.326Z,97715.19
2022-09-30T06:34:12.941Z,97716.78
2022-09-30T06:36:39.514Z,97715.75
2022-09-30T06:39:09.101Z,97714.69
2022-09-30T06:41:42.453Z,97718.88
2022-09-30T06:44:09.594Z,97715.13
2022-09-30T06:46:42.694Z,97711.47
2022-09-30T06:49:14.687Z,97718.38
2022-09-30T06:51:41.995Z,97719.22
2022-09-30T06:54:09.294Z,97714.78
2022-09-30T06:56:36.943Z,97711.38
2022-09-30T06:59:03.641Z,97724.88
2022-09-30T07:01:30.262Z,97728.03
2022-09-30T07:03:58.166Z,97727.00
2022-09-30T07:06:26.880Z,97726.16
2022-09-30T07:08:54.283Z,97733.31
2022-09-30T07:11:21.471Z,97734.44
2022-09-30T07:13:49.337Z,97748.03
2022-09-30T07:16:18.166Z,97749.63
2022-09-30T07:18:45.710Z,97751.63
2022-09-30T07:21:15.831Z,97755.69
2022-09-30T07:23:47.995Z,97757.78
2022-09-30T07:26:17.632Z,97757.53
2022-09-30T07:28:45.058Z,97757.91
2022-09-30T07:31:34.272Z,97765.88
2022-09-30T07:34:02.656Z,97762.97
2022-09-30T07:36:33.198Z,97761.34
2022-09-30T07:39:05.419Z,97772.41
2022-09-30T07:41:32.812Z,97765.22
2022-09-30T07:44:00.244Z,97779.22
2022-09-30T07:46:31.586Z,97782.59
2022-09-30T07:49:02.328Z,97787.19
2022-09-30T07:51:33.314Z,97787.72
2022-09-30T07:54:05.783Z,97786.69
2022-09-30T07:56:51.217Z,97789.91
2022-09-30T07:59:19.108Z,97792.06
2022-09-30T08:01:46.271Z,97791.50
2022-09-30T08:04:13.953Z,97799.38
2022-09-30T08:06:45.584Z,97808.22
2022-09-30T08:09:13.751Z,97804.53
2022-09-30T08:11:41.363Z,97818.00
2022-09-30T08:14:07.953Z,97821.66
2022-09-30T08:16:34.770Z,97823.03
2022-09-30T08:19:02.572Z,97823.88
2022-09-30T08:21:29.758Z,97828.53
2022-09-30T08:23:57.580Z,97825.41
2022-09-30T08:26:25.297Z,97826.63
2022-09-30T08:28:55.292Z,97830.56
2022-09-30T08:31:23.998Z,97836.81
2022-09-30T08:33:50.884Z,97845.50
2022-09-30T08:36:20.468Z,97843.25
2022-09-30T08:38:47.377Z,97845.81
2022-09-30T08:41:29.326Z,97844.19
2022-09-30T08:44:31.194Z,97853.19
2022-09-30T08:47:29.552Z,97852.34
2022-09-30T08:50:10.714Z,97861.16
2022-09-30T08:52:49.053Z,97865.81
2022-09-30T08:55:24.654Z,97868.78
2022-09-30T08:57:53.579Z,97875.69
2022-09-30T09:00:22.531Z,97876.88
2022-09-30T09:02:55.841Z,97876.41
2022-09-30T09:05:48.653Z,97877.47
2022-09-30T09:08:33.069Z,97874.91
2022-09-30T09:11:13.043Z,97876.47
2022-09-30T09:13:46.342Z,97887.84
2022-09-30T09:16:34.207Z,97890.09
2022-09-30T09:19:17.815Z,97892.91
2022-09-30T09:22:01.897Z,97896.44
2022-09-30T09:24:43.571Z,97892.59
2022-09-30T09:27:25.937Z,97901.91
2022-09-30T09:30:09.920Z,97903.78
2022-09-30T09:32:36.860Z,97899.25
2022-09-30T09:35:15.387Z,97914.28
2022-09-30T09:38:13.550Z,97916.69
2022-09-30T09:41:01.043Z,97914.91
2022-09-30T09:43:43.940Z,97916.25
2022-09-30T09:46:18.265Z,97926.16
2022-09-30T09:48:44.895Z,97920.91
2022-09-30T09:51:11.547Z,97922.38
2022-09-30T09:53:45.508Z,97910.38
2022-09-30T09:56:18.289Z,97921.16
2022-09-30T09:59:09.708Z,97931.09
2022-09-30T10:01:41.335Z,97934.38
2022-09-30T10:04:09.770Z,97937.22
2022-09-30T10:06:44.754Z,97936.72
2022-09-30T10:09:27.693Z,97933.78
2022-09-30T10:12:14.196Z,97927.03
2022-09-30T10:14:57.782Z,97933.94
2022-09-30T10:17:27.133Z,97930.06
2022-09-30T10:19:58.750Z,97924.97
2022-09-30T10:22:28.991Z,97921.16
2022-09-30T10:25:14.119Z,97936.22
2022-09-30T10:27:58.527Z,97944.34
2022-09-30T10:30:45.971Z,97946.44
2022-09-30T10:33:19.340Z,97940.19
2022-09-30T10:35:53.379Z,97939.88
2022-09-30T10:38:20.372Z,97935.97
2022-09-30T10:40:51.194Z,97940.31
2022-09-30T10:43:23.629Z,97927.75
2022-09-30T10:46:13.511Z,97931.19
2022-09-30T10:48:40.543Z,97929.84
2022-09-30T10:51:23.121Z,97924.56
2022-09-30T10:53:49.922Z,97926.31
2022-09-30T10:56:34.899Z,97931.56
2022-09-30T10:59:04.336Z,97927.28
2022-09-30T11:01:36.539Z,97945.06
2022-09-30T11:04:17.687Z,97948.50
2022-09-30T11:06:46.572Z,97946.56
2022-09-30T11:09:16.453Z,97945.47
2022-09-30T11:11:53.131Z,97936.41
2022-09-30T11:14:29.819Z,97946.72
2022-09-30T11:17:10.670Z,97948.34
2022-09-30T11:19:45.319Z,97950.31
2022-09-30T11:22:37.408Z,97951.06
2022-09-30T11:25:10.187Z,97958.34
2022-09-30T11:27:53.933Z,97963.78
2022-09-30T11:30:30.313Z,97977.34
2022-09-30T11:33:12.081Z,97979.75
2022-09-30T11:36:00.140Z,97969.00
2022-09-30T11:38:52.710Z,97965.50
2022-09-30T11:41:27.115Z,97952.47
2022-09-30T11:44:27.092Z,97952.97
2022-09-30T11:47:24.276Z,97963.59
2022-09-30T11:50:21.458Z,97962.84
2022-09-30T11:53:08.616Z,97947.44
2022-09-30T11:55:55.134Z,97938.41
2022-09-30T11:58:40.948Z,97937.63
2022-09-30T12:01:32.817Z,97939.28
2022-09-30T12:04:06.774Z,97933.19
2022-09-30T12:06:36.582Z,97930.53
2022-09-30T12:09:13.112Z,97930.56
2022-09-30T12:11:57.439Z,97942.31
2022-09-30T12:14:27.543Z,97929.44
2022-09-30T12:16:57.846Z,97928.88
2022-09-30T12:19:32.652Z,97933.94
2022-09-30T12:22:05.568Z,97927.97
2022-09-30T12:24:38.680Z,97938.47
2022-09-30T12:27:15.344Z,97928.91
2022-09-30T12:30:06.236Z,97941.69
2022-09-30T12:32:40.745Z,97939.91
2022-09-30T12:35:38.085Z,97936.94
2022-09-30T12:38:19.910Z,97926.91
2022-09-30T12:41:07.896Z,97940.22
2022-09-30T12:43:54.466Z,97942.94
2022-09-30T12:46:51.674Z,97940.25
2022-09-30T12:49:22.148Z,97943.56
2022-09-30T12:51:53.309Z,97933.97
2022-09-30T12:54:26.850Z,97934.22
2022-09-30T12:56:56.977Z,97943.50
2022-09-30T12:59:30.537Z,97932.34
2022-09-30T13:01:58.498Z,97940.09
2022-09-30T13:04:34.561Z,97947.22
2022-09-30T13:07:01.183Z,97947.50
2022-09-30T13:09:36.098Z,97939.03
2022-09-30T13:12:02.800Z,97931.06
2022-09-30T13:14:43.348Z,97924.25
2022-09-30T13:17:11.370Z,97926.66
2022-09-30T13:19:40.907Z,97927.25
2022-09-30T13:22:42.650Z,97927.25
2022-09-30T13:25:15.225Z,97933.38
2022-09-30T13:28:03.204Z,97938.16
2022-09-30T13:30:34.683Z,97925.63
2022-09-30T13:33:02.335Z,97925.09
2022-09-30T13:35:44.264Z,97917.56
2022-09-30T13:38:11.871Z,97936.25
2022-09-30T13:41:03.911Z,97939.75
2022-09-30T13:43:43.578Z,97943.75
2022-09-30T13:46:43.357Z,97942.16
2022-09-30T13:49:14.074Z,97943.50
2022-09-30T13:51:42.311Z,97934.16
2022-09-30T13:54:29.918Z,97934.44
2022-09-30T13:56:56.826Z,97949.16
2022-09-30T13:59:31.657Z,97946.47
2022-09-30T14:02:29.386Z,97934.72
2022-09-30T14:05:05.171Z,97936.06
2022-09-30T14:08:07.076Z,97933.66
2022-09-30T14:10:50.071Z,97931.56
2022-09-30T14:13:42.079Z,97928.34
2022-09-30T15:05:24.348Z,97921.06
2022-09-30T15:07:54.805Z,97935.97
2022-09-30T15:10:24.387Z,97931.19
2022-09-30T15:12:52.552Z,97932.25
2022-09-30T15:15:35.162Z,97935.47
2022-09-30T15:18:24.134Z,97946.09
2022-09-30T15:20:55.087Z,97938.34
2022-09-30T15:23:26.349Z,97940.47
2022-09-30T15:25:53.899Z,97944.75
2022-09-30T15:28:24.211Z,97941.53
2022-09-30T15:30:54.206Z,97944.16
2022-09-30T15:33:24.989Z,97947.88
2022-09-30T15:35:53.273Z,97948.91
2022-09-30T15:38:25.139Z,97955.06
2022-09-30T15:40:59.657Z,97962.00
2022-09-30T15:43:46.036Z,97959.56
2022-09-30T15:46:23.485Z,97959.78
2022-09-30T15:48:50.128Z,97960.03
2022-09-30T15:51:25.498Z,97964.53
2022-09-30T15:53:52.173Z,97965.03
2022-09-30T15:56:19.720Z,97971.69
2022-09-30T15:59:03.094Z,97964.19
2022-09-30T16:01:39.872Z,97971.09
2022-09-30T16:04:26.315Z,97971.06
2022-09-30T16:06:57.188Z,97975.34
2022-09-30T16:09:41.693Z,97976.38
2022-09-30T16:12:18.244Z,97974.75
2022-09-30T16:14:51.094Z,97983.25
2022-09-30T16:17:21.128Z,97973.94
2022-09-30T16:19:52.003Z,97975.25
2022-09-30T16:22:52.029Z,97980.78
2022-09-30T16:25:27.926Z,97976.00
2022-09-30T16:27:59.295Z,97981.03
2022-09-30T16:30:27.264Z,97986.06
2022-09-30T16:32:58.373Z,97986.03
2022-09-30T16:35:28.564Z,97982.56
2022-09-30T16:38:06.794Z,97991.06
2022-09-30T16:40:37.090Z,97983.59
2022-09-30T16:43:07.596Z,97993.38
2022-09-30T16:45:35.133Z,97994.13
2022-09-30T16:48:02.644Z,97985.84
2022-09-30T16:50:59.738Z,97993.28
2022-09-30T16:53:26.367Z,97990.34
2022-09-30T16:55:52.935Z,97997.22
2022-09-30T16:58:19.870Z,98007.03
2022-09-30T17:00:46.617Z,98006.75
2022-09-30T17:03:15.351Z,98008.06
2022-09-30T17:05:44.870Z,98013.63
2022-09-30T17:08:14.581Z,98020.00
2022-09-30T17:10:43.780Z,98027.16
2022-09-30T17:13:10.817Z,98034.44
2022-09-30T17:15:37.448Z,98036.44
2022-09-30T17:18:07.915Z,98040.19
2022-09-30T17:20:36.078Z,98037.94
2022-09-30T17:23:07.109Z,98042.97
2022-09-30T17:25:34.454Z,98044.28
2022-09-30T17:28:01.426Z,98048.78
2022-09-30T17:30:28.086Z,98045.81
2022-09-30T17:32:54.694Z,98050.88
2022-09-30T17:35:22.623Z,98042.34
2022-09-30T17:37:49.871Z,98041.81
2022-09-30T17:40:32.044Z,98048.16
2022-09-30T17:43:13.854Z,98054.06
2022-09-30T17:45:43.237Z,98053.22
2022-09-30T17:48:11.660Z,98045.75
2022-09-30T17:50:42.377Z,98043.34
2022-09-30T17:53:09.141Z,98049.47
2022-09-30T17:55:35.770Z,98056.41
2022-09-30T17:58:03.266Z,98055.56
2022-09-30T18:00:31.142Z,98053.94
2022-09-30T18:02:57.969Z,98056.28
2022-09-30T18:05:26.318Z,98060.28
2022-09-30T18:07:53.095Z,98064.81
2022-09-30T18:10:19.918Z,98061.34
2022-09-30T18:12:49.372Z,98069.00
2022-09-30T18:15:16.941Z,98069.50
2022-09-30T18:17:44.480Z,98065.22
2022-09-30T18:20:11.825Z,98059.38
2022-09-30T18:22:38.795Z,98052.41
2022-09-30T18:25:21.567Z,98058.88
2022-09-30T18:27:50.848Z,98056.47
2022-09-30T18:30:20.109Z,98048.47
2022-09-30T18:32:49.512Z,98056.09
2022-09-30T18:35:20.449Z,98055.06
2022-09-30T18:37:49.718Z,98052.41
2022-09-30T18:40:18.245Z,98050.00
2022-09-30T18:42:45.244Z,98052.41
2022-09-30T18:45:13.073Z,98050.56
2022-09-30T18:47:42.437Z,98055.81
2022-09-30T18:50:10.454Z,98053.16
2022-09-30T18:52:37.425Z,98046.78
2022-09-30T18:55:04.398Z,98048.63
2022-09-30T18:57:32.509Z,98060.31
2022-09-30T18:59:59.128Z,98056.28
2022-09-30T19:02:27.224Z,98064.00
2022-09-30T19:04:57.937Z,98060.81
2022-09-30T19:07:29.440Z,98071.97
2022-09-30T19:09:59.240Z,98069.31
2022-09-30T19:12:27.506Z,98071.97
2022-09-30T19:14:55.400Z,98056.88
2022-09-30T19:17:21.999Z,98063.22
2022-09-30T19:19:50.722Z,98059.19
2022-09-30T19:22:17.270Z,98057.13
2022-09-30T19:24:43.887Z,98054.69
2022-09-30T19:27:11.314Z,98051.47
2022-09-30T19:29:39.220Z,98054.94
2022-09-30T19:32:09.550Z,98057.03
2022-09-30T19:34:37.008Z,98052.78
2022-09-30T19:37:03.612Z,98055.44
2022-09-30T19:39:42.982Z,98049.88
2022-09-30T19:42:13.479Z,98058.59
2022-09-30T19:44:40.111Z,98061.94
2022-09-30T19:47:06.781Z,98051.81
2022-09-30T19:49:33.349Z,98054.84
2022-09-30T19:52:07.214Z,98052.44
2022-09-30T19:54:41.811Z,98051.66
2022-09-30T19:57:08.662Z,98053.75
2022-09-30T19:59:35.225Z,98048.69
2022-09-30T20:02:01.891Z,98061.19
2022-09-30T20:04:30.056Z,98062.78
2022-09-30T20:06:56.622Z,98044.41
2022-09-30T20:09:24.283Z,98038.81
2022-09-30T20:11:51.041Z,98049.97
2022-09-30T20:14:32.871Z,98052.31
2022-09-30T20:16:59.444Z,98053.38
2022-09-30T20:19:26.038Z,98058.44
2022-09-30T20:21:54.448Z,98053.56
2022-09-30T20:24:21.494Z,98046.56
2022-09-30T20:26:48.597Z,98052.38
2022-09-30T20:29:15.599Z,98045.19
2022-09-30T20:31:43.177Z,98052.84
2022-09-30T20:34:13.216Z,98049.38
2022-09-30T20:36:40.619Z,98049.13
2022-09-30T20:39:08.049Z,98050.75
2022-09-30T20:41:37.043Z,98056.06
2022-09-30T20:44:12.105Z,98059.69
2022-09-30T20:46:41.440Z,98056.94
2022-09-30T20:49:08.205Z,98050.59
2022-09-30T20:51:35.137Z,98055.13
2022-09-30T20:54:02.261Z,98049.47
2022-09-30T20:56:44.085Z,98049.31
2022-09-30T20:59:17.161Z,98045.13
2022-09-30T21:01:43.805Z,98043.31
2022-09-30T21:04:10.513Z,98048.03
2022-09-30T21:06:37.085Z,98047.25
2022-09-30T21:09:03.857Z,98040.00
2022-09-30T21:11:30.832Z,98037.91
2022-09-30T21:13:58.037Z,98036.88
2022-09-30T21:16:25.506Z,98036.06
2022-09-30T21:18:53.311Z,98043.94
2022-09-30T21:21:21.967Z,98042.81
2022-09-30T21:23:49.064Z,98053.69
2022-09-30T21:26:17.381Z,98052.38
2022-09-30T21:28:49.203Z,98053.44
2022-09-30T21:31:26.641Z,98048.63
2022-09-30T21:33:56.352Z,98052.22
2022-09-30T21:36:23.498Z,98061.22
2022-09-30T21:38:50.786Z,98055.69
2022-09-30T21:41:17.865Z,98057.06
2022-09-30T21:43:44.563Z,98062.94
2022-09-30T21:46:13.540Z,98059.31
2022-09-30T21:48:40.908Z,98060.94
2022-09-30T21:51:08.552Z,98063.81
2022-09-30T21:53:35.492Z,98068.94
2022-09-30T21:56:03.546Z,98070.88
2022-09-30T21:58:32.573Z,98079.81
2022-09-30T22:01:02.269Z,98084.88
2022-09-30T22:03:31.756Z,98095.97
2022-09-30T22:05:59.086Z,98096.47
2022-09-30T22:08:26.496Z,98100.97
2022-09-30T22:10:53.256Z,98106.28
2022-09-30T22:13:19.846Z,98101.78
2022-09-30T22:15:47.473Z,98110.22
2022-09-30T22:18:17.333Z,98101.78
2022-09-30T22:20:45.101Z,98108.72
2022-09-30T22:23:12.256Z,98108.72
2022-09-30T22:25:39.093Z,98124.63
2022-09-30T22:28:05.921Z,98124.63
2022-09-30T22:30:33.138Z,98124.31
2022-09-30T22:33:14.918Z,98121.06
2022-09-30T22:35:56.749Z,98115.31
2022-09-30T22:38:23.948Z,98117.38
2022-09-30T22:40:55.594Z,98113.94
2022-09-30T22:43:23.618Z,98121.31
2022-09-30T22:46:02.955Z,98113.94
2022-09-30T22:48:31.182Z,98113.44
2022-09-30T22:50:58.895Z,98112.88
2022-09-30T22:53:26.425Z,98106.44
2022-09-30T22:55:53.642Z,98115.75
2022-09-30T22:58:23.294Z,98107.09
2022-09-30T23:00:53.821Z,98110.78
2022-09-30T23:03:20.527Z,98118.16
2022-09-30T23:05:47.507Z,98108.94
2022-09-30T23:08:17.590Z,98110.63
2022-09-30T23:10:49.846Z,98113.19
2022-09-30T23:13:17.623Z,98113.94
2022-09-30T23:15:44.128Z,98124.75
2022-09-30T23:18:10.762Z,98122.34
2022-09-30T23:20:37.481Z,98114.63
2022-09-30T23:23:04.122Z,98112.72
2022-09-30T23:25:31.584Z,98108.19
2022-09-30T23:27:58.279Z,98117.78
2022-09-30T23:30:25.108Z,98118.56
2022-09-30T23:32:51.727Z,98116.97
2022-09-30T23:35:18.429Z,98118.03
2022-09-30T23:37:46.575Z,98125.50
2022-09-30T23:40:13.419Z,98125.75
2022-09-30T23:42:40.031Z,98127.03
2022-09-30T23:45:07.148Z,98136.50
2022-09-30T23:47:34.405Z,98133.28
2022-09-30T23:50:00.993Z,98142.84
2022-09-30T23:52:27.804Z,98138.03
2022-09-30T23:54:54.503Z,98138.03
2022-09-30T23:57:21.100Z,98134.09
2022-09-30T23:59:47.879Z,98127.19
